createdAt,value
2019-04-14T00:01:04.338Z,57.75
2019-04-14T00:03:45.431Z,57.52
2019-04-14T00:06:20.743Z,57.51
2019-04-14T00:08:56.517Z,57.37
2019-04-14T00:11:34.376Z,57.66
2019-04-14T00:14:14.170Z,57.66
2019-04-14T00:16:49.613Z,57.65
2019-04-14T00:19:26.869Z,57.49
2019-04-14T00:22:03.276Z,57.47
2019-04-14T00:24:38.352Z,57.65
2019-04-14T00:27:13.400Z,57.59
2019-04-14T00:29:48.839Z,57.58
2019-04-14T00:32:24.835Z,58.04
2019-04-14T00:35:18.796Z,58.26
2019-04-14T00:38:06.385Z,58.31
2019-04-14T00:40:43.305Z,58.24
2019-04-14T00:43:37.395Z,58.44
2019-04-14T00:46:17.087Z,58.52
2019-04-14T00:48:52.114Z,58.99
2019-04-14T00:51:27.156Z,59.13
2019-04-14T00:54:02.559Z,59.50
2019-04-14T00:56:39.048Z,59.46
2019-04-14T00:59:14.118Z,59.61
2019-04-14T01:01:49.139Z,59.80
2019-04-14T01:04:25.115Z,60.14
2019-04-14T01:07:00.457Z,60.60
2019-04-14T01:09:35.488Z,60.49
2019-04-14T01:12:10.538Z,60.82
2019-04-14T01:14:45.645Z,60.92
2019-04-14T01:17:21.935Z,61.08
2019-04-14T01:19:57.107Z,61.54
2019-04-14T01:22:32.117Z,62.36
2019-04-14T01:25:08.627Z,63.04
2019-04-14T01:27:45.142Z,63.48
2019-04-14T01:30:21.982Z,64.35
2019-04-14T01:32:57.037Z,64.54
2019-04-14T01:35:33.562Z,64.39
2019-04-14T01:38:08.557Z,65.29
2019-04-14T01:40:44.576Z,65.54
2019-04-14T01:43:19.710Z,66.28
2019-04-14T01:46:07.177Z,66.28
2019-04-14T01:48:32.437Z,66.92
2019-04-14T01:51:09.309Z,67.28
2019-04-14T01:53:47.035Z,67.55
2019-04-14T01:56:40.550Z,67.99
2019-04-14T01:59:17.301Z,68.11
2019-04-14T02:01:58.611Z,68.50
2019-04-14T02:04:33.828Z,68.19
2019-04-14T02:07:10.126Z,68.68
2019-04-14T02:09:45.311Z,68.77
2019-04-14T02:12:21.422Z,68.83
2019-04-14T02:14:58.254Z,69.87
2019-04-14T02:17:34.941Z,70.55
2019-04-14T02:20:10.515Z,70.49
2019-04-14T02:22:46.351Z,71.26
2019-04-14T02:25:21.403Z,71.71
2019-04-14T02:27:58.021Z,71.71
2019-04-14T02:30:41.443Z,72.71
2019-04-14T02:39:22.374Z,73.47
2019-04-14T02:41:51.322Z,73.55
2019-04-14T02:44:04.585Z,73.90
2019-04-14T02:46:47.703Z,74.23
2019-04-14T02:49:16.854Z,74.98
2019-04-14T02:54:37.019Z,74.99
2019-04-14T02:57:15.117Z,74.94
2019-04-14T02:59:45.285Z,75.30
2019-04-14T03:02:29.616Z,74.84
2019-04-14T03:04:59.998Z,74.93
2019-04-14T03:07:38.203Z,75.19
2019-04-14T03:10:16.341Z,76.06
2019-04-14T03:12:46.552Z,76.38
2019-04-14T03:15:25.353Z,77.14
2019-04-14T03:18:24.443Z,77.36
2019-04-14T03:23:48.968Z,77.69
2019-04-14T03:26:27.525Z,78.11
2019-04-14T03:29:13.151Z,77.54
2019-04-14T03:31:59.733Z,77.73
2019-04-14T03:39:44.332Z,78.29
2019-04-14T03:42:21.447Z,78.00
2019-04-14T03:44:51.048Z,78.35
2019-04-14T03:47:31.253Z,78.15
2019-04-14T03:53:12.006Z,78.27
2019-04-14T03:55:18.862Z,78.16
2019-04-14T03:57:37.001Z,78.86
2019-04-14T04:00:13.780Z,78.24
2019-04-14T04:02:48.878Z,78.92
2019-04-14T04:05:23.892Z,78.45
2019-04-14T04:07:58.914Z,79.05
2019-04-14T04:10:35.751Z,78.86
2019-04-14T04:13:10.793Z,78.70
2019-04-14T04:15:50.421Z,79.05
2019-04-14T04:18:47.377Z,79.55
2019-04-14T04:21:24.824Z,79.90
2019-04-14T04:24:04.459Z,79.54
2019-04-14T04:26:47.188Z,79.15
2019-04-14T04:29:24.484Z,79.12
2019-04-14T04:32:07.840Z,78.79
2019-04-14T04:34:44.638Z,79.00
2019-04-14T04:37:26.015Z,79.74
2019-04-14T04:40:02.980Z,79.14
2019-04-14T04:42:38.037Z,79.93
2019-04-14T04:45:32.009Z,80.81
2019-04-14T04:48:08.906Z,80.00
2019-04-14T04:50:45.247Z,80.18
2019-04-14T04:53:20.539Z,80.75
2019-04-14T04:55:56.820Z,79.88
2019-04-14T04:58:32.775Z,80.49
2019-04-14T05:01:07.928Z,80.02
2019-04-14T05:03:42.953Z,79.01
2019-04-14T05:06:41.987Z,79.12
2019-04-14T05:09:38.761Z,79.17
2019-04-14T05:12:19.574Z,79.38
2019-04-14T05:15:03.597Z,79.51
2019-04-14T05:17:45.261Z,79.92
2019-04-14T05:20:20.435Z,79.99
2019-04-14T05:22:55.716Z,79.98
2019-04-14T05:25:31.752Z,80.35
2019-04-14T05:28:09.110Z,80.60
2019-04-14T05:30:44.200Z,80.44
2019-04-14T05:33:20.629Z,80.40
2019-04-14T05:35:57.341Z,80.98
2019-04-14T05:38:33.908Z,81.02
2019-04-14T05:41:09.270Z,80.74
2019-04-14T05:43:51.425Z,80.51
2019-04-14T05:46:21.032Z,80.43
2019-04-14T05:48:56.057Z,80.05
2019-04-14T05:51:33.292Z,79.88
2019-04-14T05:54:09.992Z,80.85
2019-04-14T05:56:47.065Z,79.83
2019-04-14T05:59:22.509Z,79.62
2019-04-14T06:01:57.533Z,79.55
2019-04-14T06:04:33.188Z,79.02
2019-04-14T06:07:08.269Z,79.40
2019-04-14T06:09:47.240Z,78.80
2019-04-14T06:12:22.263Z,79.71
2019-04-14T06:14:57.626Z,79.96
2019-04-14T06:17:32.681Z,79.58
2019-04-14T06:20:07.866Z,79.93
2019-04-14T06:22:43.540Z,79.68
2019-04-14T06:25:18.817Z,80.55
2019-04-14T06:27:53.856Z,80.95
2019-04-14T06:30:36.820Z,80.21
2019-04-14T06:33:13.493Z,80.43
2019-04-14T06:35:50.159Z,79.92
2019-04-14T06:38:26.815Z,80.18
2019-04-14T06:41:03.738Z,80.00
2019-04-14T06:43:48.302Z,80.36
2019-04-14T06:46:15.806Z,80.50
2019-04-14T06:48:50.848Z,80.71
2019-04-14T06:51:25.878Z,80.49
2019-04-14T06:54:00.896Z,80.51
2019-04-14T06:56:36.201Z,80.71
2019-04-14T06:59:11.218Z,80.97
2019-04-14T07:01:46.265Z,81.20
2019-04-14T07:04:21.273Z,82.13
2019-04-14T07:06:56.322Z,81.59
2019-04-14T07:09:31.798Z,81.42
2019-04-14T07:12:07.688Z,81.74
2019-04-14T07:14:43.202Z,81.61
2019-04-14T07:17:18.365Z,82.16
2019-04-14T07:20:01.807Z,81.58
2019-04-14T07:22:30.246Z,81.64
2019-04-14T07:25:05.940Z,82.03
2019-04-14T07:27:40.974Z,80.92
2019-04-14T07:30:37.067Z,81.56
2019-04-14T07:33:33.161Z,81.09
2019-04-14T07:36:19.707Z,81.32
2019-04-14T07:39:14.217Z,80.68
2019-04-14T07:42:07.424Z,80.80
2019-04-14T07:45:01.698Z,80.72
2019-04-14T07:47:39.931Z,80.74
2019-04-14T07:50:30.177Z,80.40
2019-04-14T07:53:23.385Z,80.32
2019-04-14T07:56:15.256Z,79.57
2019-04-14T07:59:09.521Z,79.29
2019-04-14T08:01:46.487Z,79.07
2019-04-14T08:04:23.601Z,78.60
2019-04-14T08:06:59.257Z,78.43
2019-04-14T08:09:35.626Z,78.78
2019-04-14T08:12:15.739Z,79.15
2019-04-14T08:14:50.999Z,79.00
2019-04-14T08:17:26.347Z,79.11
2019-04-14T08:20:01.435Z,79.36
2019-04-14T08:22:36.711Z,79.00
2019-04-14T08:25:12.185Z,79.67
2019-04-14T08:27:52.385Z,80.53
2019-04-14T08:30:27.564Z,79.09
2019-04-14T08:33:03.246Z,78.47
2019-04-14T08:35:39.400Z,78.59
2019-04-14T08:38:15.019Z,78.83
2019-04-14T08:40:50.086Z,78.49
2019-04-14T08:43:26.763Z,78.58
2019-04-14T08:46:20.939Z,79.07
2019-04-14T08:48:57.809Z,79.27
2019-04-14T08:51:41.028Z,78.20
2019-04-14T08:54:17.695Z,78.47
2019-04-14T08:57:00.508Z,78.39
2019-04-14T08:59:50.397Z,78.11
2019-04-14T09:02:40.172Z,78.80
2019-04-14T09:05:16.845Z,78.35
2019-04-14T09:08:07.030Z,77.90
2019-04-14T09:10:43.704Z,77.66
2019-04-14T09:13:19.052Z,77.71
2019-04-14T09:15:54.203Z,76.55
2019-04-14T09:18:29.193Z,75.75
2019-04-14T09:21:04.254Z,74.47
2019-04-14T09:23:39.593Z,73.82
2019-04-14T09:26:14.933Z,74.62
2019-04-14T09:28:50.044Z,74.87
2019-04-14T09:31:25.065Z,74.23
2019-04-14T09:34:00.185Z,74.80
2019-04-14T09:36:37.125Z,74.06
2019-04-14T09:39:13.070Z,74.30
2019-04-14T09:41:48.733Z,74.84
2019-04-14T09:44:24.977Z,74.49
2019-04-14T09:47:00.084Z,74.65
2019-04-14T09:49:35.380Z,75.03
2019-04-14T09:52:10.718Z,75.25
2019-04-14T09:54:46.072Z,75.23
2019-04-14T09:57:21.431Z,76.11
2019-04-14T09:59:56.767Z,76.44
2019-04-14T10:02:32.092Z,76.12
2019-04-14T10:05:07.582Z,75.37
2019-04-14T10:07:42.989Z,75.28
2019-04-14T10:10:18.361Z,75.28
2019-04-14T10:12:53.644Z,75.38
2019-04-14T10:15:28.690Z,75.64
2019-04-14T10:18:03.759Z,75.77
2019-04-14T10:20:38.855Z,75.65
2019-04-14T10:23:13.877Z,76.17
2019-04-14T10:25:48.910Z,75.81
2019-04-14T10:28:23.951Z,75.85
2019-04-14T10:30:58.976Z,76.56
2019-04-14T10:33:34.356Z,76.37
2019-04-14T10:36:09.709Z,76.64
2019-04-14T10:38:44.747Z,76.61
2019-04-14T10:41:19.780Z,76.41
2019-04-14T10:43:54.861Z,76.28
2019-04-14T10:46:30.260Z,76.62
2019-04-14T10:49:05.596Z,76.86
2019-04-14T10:51:40.641Z,76.25
2019-04-14T10:54:15.937Z,76.23
2019-04-14T10:56:50.982Z,75.84
2019-04-14T10:59:27.489Z,76.42
2019-04-14T11:02:06.301Z,76.73
2019-04-14T11:04:41.701Z,76.87
2019-04-14T11:07:21.570Z,77.02
2019-04-14T11:09:56.600Z,77.30
2019-04-14T11:12:31.985Z,76.89
2019-04-14T11:15:07.952Z,75.78
2019-04-14T11:17:42.992Z,75.52
2019-04-14T11:20:18.036Z,75.53
2019-04-14T11:23:03.294Z,75.37
2019-04-14T11:25:30.741Z,75.21
2019-04-14T11:28:05.839Z,75.19
2019-04-14T11:30:40.941Z,74.03
2019-04-14T11:33:17.608Z,73.42
2019-04-14T11:35:54.294Z,73.08
2019-04-14T11:38:30.967Z,72.50
2019-04-14T11:41:14.256Z,72.66
2019-04-14T11:43:49.288Z,72.05
2019-04-14T11:46:24.628Z,71.46
2019-04-14T11:48:59.694Z,71.51
2019-04-14T11:51:34.731Z,71.15
2019-04-14T11:54:11.336Z,71.68
2019-04-14T11:56:46.347Z,69.25
2019-04-14T11:59:23.010Z,69.01
2019-04-14T12:02:05.931Z,68.62
2019-04-14T12:04:45.671Z,68.17
2019-04-14T12:07:25.824Z,67.20
2019-04-14T12:10:02.787Z,65.58
2019-04-14T12:12:38.152Z,63.53
2019-04-14T12:15:16.589Z,63.15
2019-04-14T12:17:52.017Z,62.22
2019-04-14T12:20:27.049Z,61.24
2019-04-14T12:23:02.472Z,60.11
2019-04-14T12:25:37.918Z,60.17
2019-04-14T12:28:13.580Z,60.71
2019-04-14T12:30:48.942Z,60.34
2019-04-14T12:33:24.113Z,60.83
2019-04-14T12:36:01.138Z,61.73
2019-04-14T12:38:36.685Z,60.63
2019-04-14T12:41:13.633Z,60.90
2019-04-14T12:43:53.924Z,60.47
2019-04-14T12:46:33.672Z,60.19
2019-04-14T12:49:10.726Z,59.78
2019-04-14T12:51:57.486Z,60.35
2019-04-14T12:54:33.768Z,60.76
2019-04-14T12:57:09.181Z,60.66
2019-04-14T12:59:44.231Z,60.13
2019-04-14T13:02:24.258Z,59.78
2019-04-14T13:04:59.598Z,60.04
2019-04-14T13:07:36.866Z,59.93
2019-04-14T13:10:11.931Z,60.28
2019-04-14T13:12:46.982Z,60.19
2019-04-14T13:15:22.408Z,59.83
2019-04-14T13:17:57.951Z,59.22
2019-04-14T13:20:33.292Z,59.28
2019-04-14T13:23:14.883Z,57.56
2019-04-14T13:25:45.663Z,57.28
2019-04-14T13:28:21.188Z,56.03
2019-04-14T13:30:57.278Z,55.13
2019-04-14T13:33:32.501Z,54.23
2019-04-14T13:36:07.664Z,54.03
2019-04-14T13:38:43.011Z,52.30
2019-04-14T13:41:19.898Z,51.48
2019-04-14T13:43:56.069Z,50.81
2019-04-14T13:46:32.590Z,50.63
2019-04-14T13:49:10.076Z,50.36
2019-04-14T13:51:45.261Z,48.80
2019-04-14T13:54:21.241Z,49.82
2019-04-14T13:56:56.277Z,50.56
2019-04-14T13:59:32.842Z,50.70
2019-04-14T14:02:08.204Z,49.34
2019-04-14T14:04:43.647Z,48.22
2019-04-14T14:07:18.680Z,48.20
2019-04-14T14:09:57.115Z,48.33
2019-04-14T14:12:36.860Z,49.48
2019-04-14T14:15:13.930Z,49.36
2019-04-14T14:17:51.143Z,49.44
2019-04-14T14:20:44.424Z,48.60
2019-04-14T14:23:27.786Z,49.04
2019-04-14T14:26:04.116Z,49.12
2019-04-14T14:28:39.588Z,48.40
2019-04-14T14:31:18.493Z,46.12
2019-04-14T14:33:54.321Z,44.79
2019-04-14T14:36:29.579Z,42.68
2019-04-14T14:39:07.748Z,42.10
2019-04-14T14:41:43.591Z,41.43
2019-04-14T14:44:20.056Z,43.20
2019-04-14T14:46:56.736Z,43.47
2019-04-14T14:49:51.039Z,43.29
2019-04-14T14:52:27.399Z,42.42
2019-04-14T14:55:03.661Z,42.49
2019-04-14T14:57:38.999Z,43.04
2019-04-14T15:00:22.364Z,43.36
2019-04-14T15:02:57.493Z,43.32
2019-04-14T15:05:32.690Z,41.64
2019-04-14T15:08:07.951Z,43.28
2019-04-14T15:10:45.723Z,43.90
2019-04-14T15:13:21.114Z,44.54
2019-04-14T15:15:56.214Z,44.71
2019-04-14T15:18:31.408Z,44.25
2019-04-14T15:21:06.554Z,44.68
2019-04-14T15:23:41.960Z,44.87
2019-04-14T15:26:17.131Z,45.70
2019-04-14T15:28:52.471Z,45.83
2019-04-14T15:31:27.807Z,46.10
2019-04-14T15:34:03.400Z,46.00
2019-04-14T15:36:39.080Z,46.63
2019-04-14T15:39:14.836Z,47.35
2019-04-14T15:41:50.378Z,47.00
2019-04-14T15:44:25.436Z,47.07
2019-04-14T15:47:00.751Z,46.96
2019-04-14T15:49:38.050Z,46.46
2019-04-14T15:52:13.373Z,46.51
2019-04-14T15:54:48.722Z,46.31
2019-04-14T15:57:38.301Z,47.10
2019-04-14T16:00:15.065Z,47.58
2019-04-14T16:03:09.562Z,47.80
2019-04-14T16:06:06.143Z,48.26
2019-04-14T16:08:49.654Z,48.89
2019-04-14T16:11:40.079Z,48.89
2019-04-14T16:14:17.017Z,49.97
2019-04-14T16:17:06.868Z,50.20
2019-04-14T16:19:54.668Z,50.79
2019-04-14T16:22:29.726Z,51.09
2019-04-14T16:25:06.228Z,51.09
2019-04-14T16:27:49.055Z,51.10
2019-04-14T16:30:44.579Z,51.70
2019-04-14T16:33:24.378Z,51.99
2019-04-14T16:35:59.797Z,50.72
2019-04-14T16:38:35.103Z,51.03
2019-04-14T16:41:10.475Z,52.02
2019-04-14T16:43:59.420Z,51.43
2019-04-14T16:47:08.400Z,51.50
2019-04-14T16:49:50.332Z,51.78
2019-04-14T16:52:27.418Z,51.82
2019-04-14T16:55:22.454Z,52.13
2019-04-14T16:58:02.289Z,52.11
2019-04-14T17:00:39.584Z,51.85
2019-04-14T17:03:16.173Z,51.71
2019-04-14T17:05:51.308Z,51.37
2019-04-14T17:08:27.794Z,51.88
2019-04-14T17:11:03.451Z,52.49
2019-04-14T17:13:42.391Z,52.57
2019-04-14T17:16:22.713Z,52.78
2019-04-14T17:19:32.425Z,52.31
2019-04-14T17:22:15.397Z,52.27
2019-04-14T17:25:10.514Z,52.62
2019-04-14T17:28:04.794Z,52.47
2019-04-14T17:30:54.773Z,52.59
2019-04-14T17:33:34.546Z,52.56
2019-04-14T17:36:28.538Z,51.25
2019-04-14T17:39:11.594Z,51.63
2019-04-14T17:41:49.807Z,51.86
2019-04-14T17:44:28.438Z,52.12
2019-04-14T17:47:17.927Z,52.64
2019-04-14T17:50:41.010Z,52.88
2019-04-14T17:53:26.564Z,53.05
2019-04-14T17:56:03.263Z,53.66
2019-04-14T17:58:53.360Z,53.75
2019-04-14T18:01:30.349Z,53.73
2019-04-14T18:04:25.029Z,53.35
2019-04-14T18:07:13.378Z,53.59
2019-04-14T18:09:59.219Z,54.01
2019-04-14T18:12:42.169Z,54.32
2019-04-14T18:15:29.175Z,54.72
2019-04-14T18:18:17.031Z,55.04
2019-04-14T18:20:54.761Z,55.76
2019-04-14T18:23:31.040Z,56.24
2019-04-14T18:26:09.458Z,56.55
2019-04-14T18:28:56.272Z,56.85
2019-04-14T18:31:39.815Z,57.28
2019-04-14T18:34:16.591Z,57.86
2019-04-14T18:37:07.426Z,58.15
2019-04-14T18:39:44.434Z,58.49
2019-04-14T18:42:33.929Z,58.51
2019-04-14T18:45:28.883Z,59.11
2019-04-14T18:48:21.682Z,59.20
2019-04-14T18:50:58.636Z,59.34
2019-04-14T18:53:45.699Z,59.32
2019-04-14T18:56:41.021Z,59.51
2019-04-14T18:59:29.641Z,59.78
2019-04-14T19:02:05.250Z,59.71
2019-04-14T19:04:40.799Z,59.69
2019-04-14T19:07:16.238Z,59.25
2019-04-14T19:09:51.663Z,59.19
2019-04-14T19:12:34.957Z,59.07
2019-04-14T19:15:14.155Z,59.04
2019-04-14T19:17:51.227Z,59.01
2019-04-14T19:20:26.612Z,59.12
2019-04-14T19:23:01.767Z,59.16
2019-04-14T19:25:38.268Z,59.19
2019-04-14T19:28:14.489Z,58.94
2019-04-14T19:30:50.319Z,58.83
2019-04-14T19:33:25.540Z,58.38
2019-04-14T19:36:01.027Z,58.34
2019-04-14T19:38:42.875Z,57.91
2019-04-14T19:41:18.526Z,58.08
2019-04-14T19:43:54.511Z,58.31
2019-04-14T19:46:29.835Z,58.64
2019-04-14T19:49:05.161Z,58.65
2019-04-14T19:51:40.737Z,58.76
2019-04-14T19:54:15.908Z,58.71
2019-04-14T19:56:53.440Z,58.74
2019-04-14T19:59:31.541Z,58.70
2019-04-14T20:02:06.750Z,58.98
2019-04-14T20:04:42.871Z,59.19
2019-04-14T20:07:18.250Z,59.06
2019-04-14T20:09:53.316Z,58.93
2019-04-14T20:12:30.158Z,58.83
2019-04-14T20:15:08.106Z,58.99
2019-04-14T20:17:44.908Z,58.98
2019-04-14T20:20:43.741Z,58.83
2019-04-14T20:23:34.373Z,58.88
2019-04-14T20:26:20.657Z,58.89
2019-04-14T20:29:01.507Z,58.84
2019-04-14T20:31:45.032Z,58.76
2019-04-14T20:34:20.116Z,58.54
2019-04-14T20:36:55.521Z,58.52
2019-04-14T20:39:31.013Z,58.68
2019-04-14T20:42:07.037Z,58.03
2019-04-14T20:44:43.068Z,57.54
2019-04-14T20:47:18.461Z,57.40
2019-04-14T20:49:53.473Z,57.55
2019-04-14T20:52:28.542Z,57.53
2019-04-14T20:55:05.488Z,57.46
2019-04-14T20:57:40.928Z,57.56
2019-04-14T21:00:20.800Z,57.00
2019-04-14T21:03:12.365Z,57.06
2019-04-14T21:05:58.647Z,57.02
2019-04-14T21:08:52.873Z,57.00
2019-04-14T21:11:29.644Z,56.80
2019-04-14T21:14:09.406Z,57.12
2019-04-14T21:17:01.162Z,57.20
2019-04-14T21:19:37.871Z,57.35
2019-04-14T21:22:32.029Z,57.25
2019-04-14T21:25:09.755Z,57.69
2019-04-14T21:27:49.526Z,57.80
2019-04-14T21:30:43.690Z,57.70
2019-04-14T21:33:21.618Z,57.73
2019-04-14T21:35:58.318Z,57.76
2019-04-14T21:38:55.517Z,57.85
2019-04-14T21:41:32.638Z,57.63
2019-04-14T21:44:07.653Z,57.30
2019-04-14T21:46:43.007Z,57.45
2019-04-14T21:49:18.028Z,57.66
2019-04-14T21:51:54.760Z,57.48
2019-04-14T21:54:29.822Z,57.86
2019-04-14T21:57:25.686Z,58.02
2019-04-14T22:00:06.461Z,58.17
2019-04-14T22:03:02.290Z,58.02
2019-04-14T22:05:48.794Z,57.94
2019-04-14T22:08:32.623Z,58.26
2019-04-14T22:11:09.368Z,58.20
2019-04-14T22:13:46.374Z,58.39
2019-04-14T22:16:21.482Z,58.68
2019-04-14T22:18:56.492Z,58.48
2019-04-14T22:21:31.523Z,58.68
2019-04-14T22:24:06.919Z,58.94
2019-04-14T22:26:41.979Z,58.83
2019-04-14T22:29:16.992Z,58.62
2019-04-14T22:31:52.437Z,59.02
2019-04-14T22:34:27.805Z,58.39
2019-04-14T22:37:02.851Z,58.58
2019-04-14T22:39:39.306Z,58.40
2019-04-14T22:42:14.594Z,58.26
2019-04-14T22:44:49.605Z,58.25
2019-04-14T22:47:24.644Z,58.27
2019-04-14T22:49:59.650Z,58.26
2019-04-14T22:52:34.970Z,58.14
2019-04-14T22:55:10.064Z,57.99
2019-04-14T22:57:45.088Z,57.94
2019-04-14T23:00:41.183Z,57.60
2019-04-14T23:03:18.226Z,57.85
2019-04-14T23:05:55.248Z,57.55
2019-04-14T23:08:38.594Z,57.66
2019-04-14T23:11:21.506Z,57.57
2019-04-14T23:14:01.115Z,57.54
2019-04-14T23:16:55.297Z,57.70
2019-04-14T23:19:49.456Z,57.87
2019-04-14T23:22:38.834Z,58.24
2019-04-14T23:25:13.901Z,58.65
2019-04-14T23:27:48.924Z,58.54
2019-04-14T23:30:23.960Z,58.48
2019-04-14T23:32:58.992Z,58.89
2019-04-14T23:35:34.359Z,58.47
2019-04-14T23:38:09.388Z,58.55
2019-04-14T23:40:45.656Z,58.38
2019-04-14T23:43:20.752Z,58.48
2019-04-14T23:45:56.963Z,58.60
2019-04-14T23:48:31.970Z,58.40
2019-04-14T23:51:07.003Z,58.44
2019-04-14T23:53:42.020Z,58.58
2019-04-14T23:56:17.054Z,58.48
2019-04-14T23:58:52.073Z,58.53
